All Spectrum Aviation - Van Nuys Airport - KVNY

HOME

Van Nuys Tower Recordings

Condor Squadron KVNY Webcam

Visit our Electronics Store

Condor Squadron Webcam - Van Nuys Airport - KVNY
Picture taken: Sat, 06 Feb 2016 03:17:17 -0800
YouTube Channel!    Latest Timelapse Movie    Full Size Image    Regular Size Image    

2016/02/06 10:51 KVNY 061051Z 36016G25KT 10SM CLR 14/M06 A3028 RMK AO2 SLP246 T01441061

HOME

Van Nuys Tower Recordings

Condor Squadron KVNY Webcam

Visit our Electronics Store